N1MJ EGNT-EICK
Flight info
| Callsign | N1MJ |
|---|---|
| Flight time | N/A |
| Altitude | 37000 |
| Route | GIRLI P18 GASKO P16 RIBEL UP16 CROFT/N0434F380 Y70 KOLID UL70 PENIL M144 BAGSO DCT EICK |
| Aircraft | B737/M-SDE2E3FGHIRWXY/LB1 |
Departure
| Time | N/A |
|---|---|
| Airport | Newcastle International Airport (EGNT) |
Arrival
| Time | 2026-05-04 23:54 |
|---|---|
| Airport | Cork International Airport (EICK) |
| Time | Latitude | Longitude | Altitude | Speed | Heading |
|---|---|---|---|---|---|
| 2026-05-04 23:37 | 52.12576 | -8.01525 | 18127 ft | 407 kts | 205° |
| 2026-05-04 23:38 | 52.09934 | -8.02997 | 17019 ft | 396 kts | 193° |
| 2026-05-04 23:38 | 52.07291 | -8.04078 | 15937 ft | 387 kts | 193° |
| 2026-05-04 23:38 | 52.04701 | -8.05093 | 14867 ft | 379 kts | 193° |
| 2026-05-04 23:38 | 52.02196 | -8.06079 | 13829 ft | 371 kts | 193° |
| 2026-05-04 23:39 | 51.99710 | -8.07072 | 12798 ft | 364 kts | 193° |
| 2026-05-04 23:39 | 51.97287 | -8.08057 | 12102 ft | 350 kts | 194° |
| 2026-05-04 23:39 | 51.94915 | -8.09029 | 11223 ft | 354 kts | 194° |
| 2026-05-04 23:39 | 51.92528 | -8.10012 | 10438 ft | 353 kts | 194° |
| 2026-05-04 23:40 | 51.90190 | -8.10978 | 10078 ft | 333 kts | 194° |
| 2026-05-04 23:40 | 51.88039 | -8.11865 | 9970 ft | 305 kts | 194° |
| 2026-05-04 23:40 | 51.86066 | -8.12678 | 9796 ft | 283 kts | 194° |
| 2026-05-04 23:40 | 51.84146 | -8.13467 | 9201 ft | 282 kts | 195° |
| 2026-05-04 23:41 | 51.82261 | -8.14245 | 8758 ft | 275 kts | 195° |
| 2026-05-04 23:41 | 51.80455 | -8.14991 | 8373 ft | 267 kts | 195° |
| 2026-05-04 23:41 | 51.78659 | -8.15731 | 8011 ft | 267 kts | 195° |
| 2026-05-04 23:41 | 51.76863 | -8.16471 | 7655 ft | 266 kts | 195° |
| 2026-05-04 23:42 | 51.75067 | -8.17210 | 7290 ft | 266 kts | 195° |
| 2026-05-04 23:42 | 51.73276 | -8.17945 | 6928 ft | 266 kts | 195° |
| 2026-05-04 23:42 | 51.71564 | -8.18941 | 6676 ft | 255 kts | 217° |
| 2026-05-04 23:42 | 51.70521 | -8.21043 | 6554 ft | 233 kts | 251° |
| 2026-05-04 23:43 | 51.70142 | -8.23467 | 6439 ft | 215 kts | 268° |
| 2026-05-04 23:43 | 51.70157 | -8.25787 | 6329 ft | 198 kts | 277° |
| 2026-05-04 23:43 | 51.70249 | -8.27903 | 6164 ft | 184 kts | 277° |
| 2026-05-04 23:43 | 51.70338 | -8.29901 | 5975 ft | 171 kts | 278° |
| 2026-05-04 23:44 | 51.70416 | -8.31783 | 5683 ft | 166 kts | 277° |
| 2026-05-04 23:44 | 51.70489 | -8.33632 | 5311 ft | 166 kts | 277° |
| 2026-05-04 23:44 | 51.70560 | -8.35481 | 4987 ft | 162 kts | 277° |
| 2026-05-04 23:44 | 51.70625 | -8.37235 | 4692 ft | 154 kts | 277° |
| 2026-05-04 23:45 | 51.70681 | -8.38847 | 4478 ft | 139 kts | 277° |
| 2026-05-04 23:45 | 51.70754 | -8.40385 | 4091 ft | 137 kts | 283° |
| 2026-05-04 23:45 | 51.71242 | -8.41570 | 3669 ft | 127 kts | 340° |
| 2026-05-04 23:45 | 51.72093 | -8.41891 | 3270 ft | 127 kts | 343° |
| 2026-05-04 23:46 | 51.72921 | -8.42387 | 3029 ft | 127 kts | 341° |
| 2026-05-04 23:46 | 51.73732 | -8.42892 | 2685 ft | 126 kts | 342° |
| 2026-05-04 23:46 | 51.74579 | -8.43422 | 2220 ft | 136 kts | 339° |
| 2026-05-04 23:46 | 51.75429 | -8.43947 | 2080 ft | 131 kts | 340° |
| 2026-05-04 23:47 | 51.76276 | -8.44452 | 1928 ft | 132 kts | 340° |
| 2026-05-04 23:47 | 51.77133 | -8.44961 | 1765 ft | 131 kts | 339° |
| 2026-05-04 23:47 | 51.77983 | -8.45467 | 1593 ft | 130 kts | 339° |
| 2026-05-04 23:47 | 51.78830 | -8.45970 | 1414 ft | 130 kts | 338° |
| 2026-05-04 23:48 | 51.79681 | -8.46475 | 1242 ft | 131 kts | 339° |
| 2026-05-04 23:48 | 51.80518 | -8.47017 | 1007 ft | 131 kts | 327° |
| 2026-05-04 23:48 | 51.81350 | -8.47690 | 797 ft | 136 kts | 345° |
| 2026-05-04 23:48 | 51.82279 | -8.48068 | 659 ft | 139 kts | 341° |
| 2026-05-04 23:49 | 51.83203 | -8.48566 | 516 ft | 142 kts | 340° |
| 2026-05-04 23:49 | 51.84153 | -8.49124 | 507 ft | 164 kts | 340° |
| 2026-05-04 23:49 | 51.85467 | -8.49240 | 905 ft | 227 kts | 25° |
| 2026-05-04 23:49 | 51.86406 | -8.46935 | 1585 ft | 277 kts | 83° |
| 2026-05-04 23:50 | 51.85933 | -8.44013 | 2050 ft | 263 kts | 125° |
| 2026-05-04 23:50 | 51.84707 | -8.42025 | 2033 ft | 238 kts | 138° |
| 2026-05-04 23:50 | 51.83442 | -8.40313 | 1916 ft | 237 kts | 141° |
| 2026-05-04 23:50 | 51.82044 | -8.39013 | 1981 ft | 228 kts | 163° |
| 2026-05-04 23:51 | 51.80477 | -8.38779 | 1922 ft | 226 kts | 189° |
| 2026-05-04 23:51 | 51.79054 | -8.39599 | 2114 ft | 212 kts | 215° |
| 2026-05-04 23:51 | 51.78044 | -8.41175 | 2113 ft | 196 kts | 239° |
| 2026-05-04 23:51 | 51.77561 | -8.43086 | 1887 ft | 174 kts | 267° |
| 2026-05-04 23:52 | 51.77782 | -8.44835 | 1745 ft | 145 kts | 306° |
| 2026-05-04 23:52 | 51.78490 | -8.45780 | 1530 ft | 130 kts | 338° |
| 2026-05-04 23:52 | 51.79343 | -8.46276 | 1289 ft | 131 kts | 339° |
| 2026-05-04 23:52 | 51.80204 | -8.46761 | 1071 ft | 130 kts | 339° |
| 2026-05-04 23:53 | 51.81064 | -8.47289 | 941 ft | 134 kts | 339° |
| 2026-05-04 23:53 | 51.81921 | -8.47802 | 773 ft | 129 kts | 339° |
| 2026-05-04 23:53 | 51.82744 | -8.48294 | 617 ft | 124 kts | 340° |
| 2026-05-04 23:53 | 51.83564 | -8.48775 | 474 ft | 125 kts | 340° |
| 2026-05-04 23:54 | 51.84259 | -8.49182 | 481 ft | 74 kts | 340° |
| 2026-05-04 23:54 | 51.84583 | -8.49374 | 490 ft | 41 kts | 340° |
| 2026-05-04 23:54 | 51.84748 | -8.49459 | 491 ft | 16 kts | 8° |
| 2026-05-04 23:54 | 51.84791 | -8.49351 | 494 ft | 10 kts | 70° |
| 2026-05-04 23:55 | 51.84802 | -8.49244 | 500 ft | 10 kts | 116° |
| 2026-05-04 23:55 | 51.84743 | -8.49188 | 502 ft | 10 kts | 157° |
| 2026-05-04 23:55 | 51.84742 | -8.49094 | 502 ft | 7 kts | 64° |
| 2026-05-04 23:56 | 51.84760 | -8.49016 | 502 ft | 3 kts | 69° |
| 2026-05-04 23:56 | 51.84761 | -8.49016 | 502 ft | 0 kts | 70° |